Time;durP1;ratioP1;P1;durP2;ratioP2;P2;SDS_P1;SDS_P2;PMS_P1;PMS_P2;Temp;Humidity;BMP_temperature;BMP_pressure;BME280_temperature;BME280_humidity;BME280_pressure;Samples;Min_cycle;Max_cycle;Signal;HPM_P1;HPM_P2
2022/01/08 00:00:15;;;;;;;18.40;7.95;;;;;;;4.77;44.43;98180.00;4477242;32;20147;-78
2022/01/08 00:02:43;;;;;;;22.83;8.60;;;;;;;4.65;44.61;98178.50;4491533;32;20431;-78
2022/01/08 00:05:11;;;;;;;23.42;9.18;;;;;;;5.46;42.23;98176.16;4491471;32;20084;-78
2022/01/08 00:07:37;;;;;;;22.37;9.60;;;;;;;4.68;44.02;98164.84;4491152;32;20132;-78
2022/01/08 00:10:05;;;;;;;24.05;10.40;;;;;;;4.49;44.56;98169.44;4491550;32;20111;-78
2022/01/08 00:12:32;;;;;;;25.10;8.35;;;;;;;4.51;44.76;98167.69;4491472;32;20144;-78
2022/01/08 00:14:59;;;;;;;23.27;9.57;;;;;;;4.62;44.42;98162.41;4491181;32;20411;-78
2022/01/08 00:17:25;;;;;;;23.30;9.93;;;;;;;4.77;44.00;98166.38;4491428;32;20152;-78
2022/01/08 00:19:53;;;;;;;24.80;10.82;;;;;;;4.63;44.07;98170.03;4491358;32;20116;-78
2022/01/08 00:22:20;;;;;;;28.27;11.38;;;;;;;4.77;43.88;98167.22;4491005;32;20115;-78
2022/01/08 00:24:47;;;;;;;24.10;10.13;;;;;;;4.41;44.67;98155.94;4491053;32;20114;-78
2022/01/08 00:27:14;;;;;;;25.33;11.23;;;;;;;4.61;44.70;98158.16;4490928;32;20370;-78
2022/01/08 00:29:41;;;;;;;24.35;10.88;;;;;;;4.92;43.85;98158.47;4491114;32;20370;-78
2022/01/08 00:32:08;;;;;;;29.10;12.18;;;;;;;4.85;44.05;98151.75;4491184;32;20100;-78
2022/01/08 00:34:35;;;;;;;25.95;11.73;;;;;;;4.94;43.80;98144.75;4490826;32;20092;-78
2022/01/08 00:37:03;;;;;;;27.20;12.10;;;;;;;4.71;44.18;98143.50;4490955;32;20145;-78
2022/01/08 00:39:30;;;;;;;26.02;11.60;;;;;;;4.90;42.99;98139.75;4473405;32;20088;-78
2022/01/08 00:41:57;;;;;;;26.33;11.32;;;;;;;4.97;42.48;98143.84;4487987;32;20092;-78
2022/01/08 00:44:24;;;;;;;25.60;11.55;;;;;;;4.81;42.89;98143.31;4474042;32;20386;-78
2022/01/08 00:46:51;;;;;;;28.67;12.30;;;;;;;3.95;44.49;98136.22;4488347;32;20119;-78
2022/01/08 00:49:18;;;;;;;32.95;13.15;;;;;;;4.48;43.34;98129.41;4487768;32;20170;-78
2022/01/08 00:51:45;;;;;;;30.95;13.48;;;;;;;3.53;45.28;98131.72;4474041;32;20547;-78
2022/01/08 00:54:12;;;;;;;38.25;14.82;;;;;;;4.16;44.62;98132.50;4473988;32;20422;-78
2022/01/08 00:56:39;;;;;;;;;;;;;;;4.27;43.69;98134.88;4488094;32;20080;-78
2022/01/08 00:59:06;;;;;;;29.58;12.20;;;;;;;3.16;46.26;98130.47;4488089;32;19968;-78
2022/01/08 01:01:33;;;;;;;31.98;11.55;;;;;;;3.49;46.13;98126.66;4488264;32;20155;-78
2022/01/08 01:04:00;;;;;;;29.98;11.45;;;;;;;1.88;50.67;98126.59;4487632;32;20104;-78
2022/01/08 01:06:27;;;;;;;29.37;11.48;;;;;;;3.44;45.88;98120.78;4488084;32;20364;-78
2022/01/08 01:08:54;;;;;;;32.33;12.52;;;;;;;3.44;45.37;98113.13;4487906;32;20163;-78
2022/01/08 01:11:21;;;;;;;30.98;13.07;;;;;;;3.48;45.23;98119.88;4487667;32;20151;-78
2022/01/08 01:13:48;;;;;;;30.35;12.93;;;;;;;3.51;45.28;98121.56;4487975;32;20465;-78
2022/01/08 01:16:14;;;;;;;29.65;12.80;;;;;;;3.95;44.16;98109.84;4487976;32;20115;-78
2022/01/08 01:18:41;;;;;;;26.92;11.45;;;;;;;4.52;42.28;98108.03;4487679;32;20132;-78
2022/01/08 01:21:09;;;;;;;29.27;10.57;;;;;;;4.72;40.17;98115.34;4488159;32;20190;-78
2022/01/08 01:23:42;;;;;;;24.63;8.98;;;;;;;3.28;42.57;98118.44;4487425;32;20095;-78
2022/01/08 01:26:14;;;;;;;25.35;9.43;;;;;;;3.05;42.96;98119.56;4488126;32;20124;-78
2022/01/08 01:47:29;;;;;;;27.42;10.65;;;;;;;2.33;44.98;98109.25;4487907;32;20088;-78
2022/01/08 01:49:56;;;;;;;28.02;11.27;;;;;;;3.25;42.75;98092.97;4487581;32;20123;-78
2022/01/08 01:52:23;;;;;;;34.38;13.93;;;;;;;2.47;44.39;98099.81;4487417;32;20388;-78
2022/01/08 01:54:50;;;;;;;;;;;;;;;2.40;44.70;98087.97;4488062;32;20189;-78
2022/01/08 01:57:19;;;;;;;32.17;13.75;;;;;;;2.08;46.07;98082.34;4487878;32;20035;-78
2022/01/08 01:59:46;;;;;;;37.08;14.63;;;;;;;1.87;47.40;98086.72;4473407;32;20124;-78
2022/01/08 02:02:13;;;;;;;38.53;17.17;;;;;;;1.98;47.79;98073.94;4473631;32;20168;-78
2022/01/08 02:04:40;;;;;;;33.53;14.60;;;;;;;2.57;46.11;98081.03;4487553;32;20344;-78
2022/01/08 02:07:08;;;;;;;37.97;15.25;;;;;;;1.52;48.20;98079.34;4473275;32;20119;-78
2022/01/08 02:09:39;;;;;;;40.08;16.70;;;;;;;2.43;46.23;98071.81;4487642;32;20156;-78
2022/01/08 02:12:10;;;;;;;41.20;15.80;;;;;;;1.86;48.06;98064.69;4473686;32;20099;-78
2022/01/08 02:14:39;;;;;;;41.00;17.15;;;;;;;2.94;45.42;98054.28;4487405;32;20113;-78
2022/01/08 02:17:07;;;;;;;68.72;28.15;;;;;;;2.80;46.08;98057.84;4473615;32;20096;-78
2022/01/08 02:19:34;;;;;;;48.95;22.20;;;;;;;2.56;46.47;98063.22;4487208;32;20072;-77
2022/01/08 02:22:03;;;;;;;55.05;23.45;;;;;;;3.33;44.24;98063.97;4487675;32;20111;-78
2022/01/08 02:24:31;;;;;;;45.22;19.12;;;;;;;2.56;45.76;98060.66;4487299;32;20115;-78
2022/01/08 02:26:58;;;;;;;56.92;21.77;;;;;;;2.25;46.48;98060.13;4487200;32;20502;-78
2022/01/08 02:29:25;;;;;;;57.75;23.92;;;;;;;2.21;46.28;98058.44;4487403;32;20120;-78
2022/01/08 02:32:00;;;;;;;46.50;18.98;;;;;;;3.16;44.51;98063.34;4487530;32;20126;-78
2022/01/08 02:34:27;;;;;;;39.72;14.45;;;;;;;2.23;45.48;98064.37;4487267;32;20164;-78
2022/01/08 02:36:55;;;;;;;31.37;12.20;;;;;;;2.62;45.10;98065.69;4487506;32;20472;-78
2022/01/08 02:39:22;;;;;;;36.60;13.60;;;;;;;2.06;45.38;98063.69;4487293;32;20080;-78
2022/01/08 02:41:54;;;;;;;28.45;12.13;;;;;;;1.90;45.13;98065.50;4487198;32;20600;-78
2022/01/08 02:44:21;;;;;;;31.50;13.35;;;;;;;2.23;44.23;98062.69;4487244;32;20443;-78
2022/01/08 02:46:48;;;;;;;25.40;10.50;;;;;;;1.97;44.23;98060.38;4487375;32;20148;-78
2022/01/08 02:49:15;;;;;;;;;;;;;;;1.41;46.24;98061.62;4487278;32;20153;-78
2022/01/08 02:51:42;;;;;;;23.73;8.48;;;;;;;0.11;50.28;98066.34;4473436;32;20039;-78
2022/01/08 02:54:11;;;;;;;27.60;9.32;;;;;;;0.23;49.78;98068.00;4487258;32;20471;-78
2022/01/08 02:56:39;;;;;;;25.42;9.75;;;;;;;1.02;48.68;98070.28;4472790;32;20497;-78
2022/01/08 02:59:06;;;;;;;28.20;10.38;;;;;;;0.58;49.87;98066.22;4487210;32;20080;-78
2022/01/08 03:01:34;;;;;;;28.90;9.93;;;;;;;1.09;48.57;98071.13;4472334;32;20169;-78
2022/01/08 03:04:02;;;;;;;22.67;9.55;;;;;;;1.52;47.58;98064.09;4487087;32;20110;-78
2022/01/08 03:06:29;;;;;;;28.75;10.52;;;;;;;2.06;45.96;98068.78;4487127;32;20427;-78
2022/01/08 03:08:56;;;;;;;21.90;9.98;;;;;;;1.87;46.02;98057.91;4472740;32;20096;-78
2022/01/08 03:11:23;;;;;;;;;;;;;;;1.87;45.32;98061.28;4487480;32;20498;-78
2022/01/08 03:13:50;;;;;;;23.70;9.35;;;;;;;2.28;44.45;98060.09;4473015;32;20001;-78
2022/01/08 03:16:17;;;;;;;24.98;9.95;;;;;;;2.27;44.53;98058.41;4472594;32;20106;-78
2022/01/08 03:18:47;;;;;;;25.05;10.02;;;;;;;2.64;44.52;98051.22;4486997;32;20151;-78
2022/01/08 03:21:17;;;;;;;26.08;10.25;;;;;;;2.93;43.74;98047.50;4472991;32;20115;-78
2022/01/08 03:23:55;;;;;;;26.23;9.60;;;;;;;2.80;44.85;98047.66;4486293;32;20109;-77
2022/01/08 03:26:23;;;;;;;28.17;10.20;;;;;;;3.15;44.30;98041.25;4486827;32;20088;-78
2022/01/08 03:28:51;;;;;;;31.73;11.52;;;;;;;3.05;44.37;98044.78;4486795;32;20426;-78
2022/01/08 03:31:19;;;;;;;34.15;12.85;;;;;;;2.82;45.08;98039.97;4486583;32;20682;-78
2022/01/08 03:33:46;;;;;;;31.85;13.35;;;;;;;2.20;46.72;98046.59;4486767;32;20167;-78
2022/01/08 03:36:14;;;;;;;;;;;;;;;2.81;45.57;98041.69;4473067;32;20100;-78
2022/01/08 03:38:41;;;;;;;38.40;16.95;;;;;;;1.51;47.85;98037.00;4472371;32;19974;-78
2022/01/08 03:41:08;;;;;;;35.03;13.32;;;;;;;1.83;47.42;98029.13;4472789;32;20114;-78
2022/01/08 03:43:35;;;;;;;30.80;14.57;;;;;;;0.45;51.44;98025.66;4472548;32;20126;-78
2022/01/08 03:46:04;;;;;;;34.95;14.80;;;;;;;-0.88;57.77;98003.75;4486248;32;20080;-77
2022/01/08 03:48:45;;;;;;;25.20;10.50;;;;;;;0.94;52.42;98008.50;4486580;32;20095;-78
2022/01/08 03:51:13;;;;;;;26.80;10.65;;;;;;;2.07;48.07;98011.94;4486297;32;20547;-78
2022/01/08 03:53:41;;;;;;;24.85;10.48;;;;;;;2.15;47.02;98008.47;4486495;32;20475;-78
2022/01/08 03:56:08;;;;;;;26.12;10.15;;;;;;;2.11;46.26;98004.25;4486478;32;20140;-78
2022/01/08 03:58:35;;;;;;;23.75;9.93;;;;;;;2.44;45.02;97997.09;4486123;32;20140;-78
2022/01/08 04:01:02;;;;;;;;;;;;;;;2.33;44.74;97999.78;4486951;32;20227;-78
2022/01/08 04:03:29;;;;;;;22.75;10.43;;;;;;;2.31;43.90;98004.87;4486425;32;19980;-78
2022/01/08 04:05:56;;;;;;;35.70;14.50;;;;;;;3.14;41.33;98003.87;4486074;32;20141;-78
2022/01/08 04:08:23;;;;;;;;;;;;;;;3.60;39.76;98003.19;4472548;32;20508;-78
2022/01/08 04:10:50;;;;;;;32.33;12.00;;;;;;;2.76;41.10;98004.37;4486354;32;19993;-78
2022/01/08 04:13:24;;;;;;;30.45;11.73;;;;;;;2.56;41.70;98000.38;4486540;32;20397;-78
2022/01/08 04:15:54;;;;;;;32.05;12.82;;;;;;;1.58;43.15;98002.16;4475188;32;20132;-78
2022/01/08 04:18:22;;;;;;;27.27;12.13;;;;;;;1.62;43.18;98003.84;4488411;32;20480;-78
2022/01/08 04:23:22;;;;;;;22.95;9.48;;;;;;;0.84;45.99;98001.78;4488295;32;20565;-78
2022/01/08 04:25:49;;;;;;;22.95;9.88;;;;;;;0.75;46.75;97996.78;4488020;32;20084;-77
2022/01/08 04:28:17;;;;;;;27.10;9.70;;;;;;;1.63;44.63;98000.44;4488331;32;20447;-78
2022/01/08 04:30:44;;;;;;;21.77;9.38;;;;;;;1.71;44.22;98009.72;4474422;32;20476;-78
2022/01/08 04:33:11;;;;;;;22.23;8.38;;;;;;;1.70;43.91;98007.16;4488024;32;20140;-78
2022/01/08 04:35:38;;;;;;;25.42;8.70;;;;;;;1.78;43.51;98005.41;4488362;32;20092;-78
2022/01/08 04:38:05;;;;;;;19.35;7.75;;;;;;;1.30;44.53;98004.09;4488239;32;20148;-78
2022/01/08 04:40:33;;;;;;;22.70;8.57;;;;;;;1.30;44.71;97996.47;4488180;32;20163;-77
2022/01/08 04:43:01;;;;;;;25.15;10.13;;;;;;;0.70;46.67;98001.00;4474222;32;20164;-78
2022/01/08 04:45:29;;;;;;;25.25;11.02;;;;;;;-0.14;50.49;98011.37;4488242;32;20493;-78
2022/01/08 04:48:00;;;;;;;25.27;9.77;;;;;;;0.32;48.27;98007.09;4473852;32;20085;-77
2022/01/08 04:50:29;;;;;;;32.17;12.75;;;;;;;0.52;47.45;98010.38;4488406;32;20112;-78
2022/01/08 04:52:56;;;;;;;31.60;13.25;;;;;;;0.61;47.82;97995.97;4488201;32;20100;-78
2022/01/08 04:55:24;;;;;;;25.27;12.50;;;;;;;1.27;46.43;97997.28;4487971;32;20167;-78
2022/01/08 04:57:51;;;;;;;32.47;13.20;;;;;;;1.92;44.48;98008.69;4488116;32;20137;-78
2022/01/08 05:00:20;;;;;;;29.35;12.40;;;;;;;1.80;44.92;98002.84;4488100;32;20092;-78
2022/01/08 05:02:47;;;;;;;32.72;14.10;;;;;;;1.79;44.65;98004.53;4487950;32;20168;-78
2022/01/08 05:05:14;;;;;;;29.08;12.57;;;;;;;1.48;45.35;98005.63;4475898;32;20126;-77
2022/01/08 05:07:41;;;;;;;31.23;13.15;;;;;;;1.40;45.20;98006.56;4476714;32;20089;-78
2022/01/08 05:10:08;;;;;;;29.45;12.57;;;;;;;1.97;43.72;98011.19;4474634;32;20073;-78
2022/01/08 05:12:35;;;;;;;30.12;13.07;;;;;;;1.73;44.47;98004.59;4488466;32;20583;-77
2022/01/08 05:15:03;;;;;;;28.20;11.95;;;;;;;2.64;41.95;98007.06;4487767;32;20092;-77
2022/01/08 05:17:38;;;;;;;33.92;13.73;;;;;;;2.39;41.66;98006.50;4488058;32;20160;-78
2022/01/08 05:20:09;;;;;;;32.78;13.75;;;;;;;1.67;42.52;98007.19;4469267;32;175413;-78
2022/01/08 05:22:52;;;;;;;36.60;15.63;;;;;;;2.84;39.69;98015.31;4473542;32;20156;-77
2022/01/08 05:25:21;;;;;;;32.92;14.27;;;;;;;2.60;40.21;98003.72;4474879;32;20147;-78
2022/01/08 05:27:48;;;;;;;30.40;13.77;;;;;;;1.43;42.43;98011.59;4473808;32;20092;-78
2022/01/08 05:30:17;;;;;;;32.60;13.43;;;;;;;1.79;42.28;98014.72;4487488;32;20169;-78
2022/01/08 05:32:45;;;;;;;38.47;15.07;;;;;;;1.72;42.48;98018.19;4473655;32;20120;-78
2022/01/08 05:35:12;;;;;;;37.33;14.23;;;;;;;0.66;45.15;98007.81;4473975;32;20143;-78
2022/01/08 05:37:39;;;;;;;31.65;13.18;;;;;;;0.28;46.71;98011.31;4460514;32;20110;-77
2022/01/08 05:40:07;;;;;;;29.87;13.07;;;;;;;2.13;42.28;98015.28;4473596;32;20168;-77
2022/01/08 05:42:34;;;;;;;32.70;13.40;;;;;;;1.25;43.68;98019.34;4473754;32;20122;-78
2022/01/08 05:45:02;;;;;;;42.75;15.85;;;;;;;1.75;42.26;98010.50;4473323;32;20178;-78
2022/01/08 05:47:33;;;;;;;36.78;15.00;;;;;;;2.13;42.29;98011.87;4487882;32;20099;-78
2022/01/08 05:50:02;;;;;;;36.65;14.85;;;;;;;1.71;43.90;98009.72;4473341;32;20377;-77
2022/01/08 05:52:29;;;;;;;40.33;16.02;;;;;;;2.30;42.54;98015.09;4473831;32;20112;-78
2022/01/08 05:54:56;;;;;;;;;;;;;;;1.93;42.38;98015.47;4473994;32;20155;-77
2022/01/08 05:57:23;;;;;;;32.97;12.55;;;;;;;1.98;41.95;98011.16;4487589;32;20023;-78
2022/01/08 05:59:50;;;;;;;36.17;12.90;;;;;;;1.02;43.76;98008.47;4487650;32;20128;-78
2022/01/08 06:02:17;;;;;;;31.33;13.23;;;;;;;0.67;44.26;98003.56;4473630;32;20104;-77
2022/01/08 06:04:44;;;;;;;31.10;13.57;;;;;;;0.93;43.86;98000.91;4473386;32;20155;-77
2022/01/08 06:07:13;;;;;;;31.33;14.10;;;;;;;1.42;43.27;98009.91;4487626;32;20102;-78
2022/01/08 06:09:40;;;;;;;35.35;14.75;;;;;;;1.10;43.58;98009.28;4487550;32;20164;-78
2022/01/08 06:12:08;;;;;;;47.40;17.08;;;;;;;1.11;43.58;98003.34;4487370;32;20155;-78
2022/01/08 06:14:35;;;;;;;60.55;26.15;;;;;;;1.03;43.57;98005.91;4487715;32;20085;-78
2022/01/08 06:17:03;;;;;;;69.07;28.12;;;;;;;1.59;43.68;98007.22;4487707;32;20196;-78
2022/01/08 06:19:30;;;;;;;70.03;27.05;;;;;;;1.45;43.66;98007.34;4487216;32;20144;-78
2022/01/08 06:21:57;;;;;;;67.35;25.65;;;;;;;1.54;44.62;98008.97;4487611;32;20113;-78
2022/01/08 06:24:23;;;;;;;;;;;;;;;0.85;46.52;97994.19;4487564;32;20139;-78
2022/01/08 06:26:50;;;;;;;73.82;32.42;;;;;;;1.38;45.21;97998.09;4487165;32;20336;-78
2022/01/08 06:29:17;;;;;;;;;;;;;;;1.68;45.22;98001.25;4487766;32;20175;-78
2022/01/08 06:31:44;;;;;;;58.28;25.52;;;;;;;2.20;44.44;98008.41;4487727;32;20039;-78
2022/01/08 06:34:11;;;;;;;;;;;;;;;1.45;46.17;98012.44;4487388;32;20084;-77
2022/01/08 06:36:38;;;;;;;57.58;24.00;;;;;;;1.14;46.26;98009.25;4486542;32;20042;-77
2022/01/08 06:39:05;;;;;;;;;;;;;;;1.71;44.26;98012.25;4487655;32;20491;-78
2022/01/08 06:41:32;;;;;;;56.05;22.70;;;;;;;1.28;43.91;98004.09;4473615;32;20001;-78
2022/01/08 06:43:59;;;;;;;;;;;;;;;1.18;43.95;97999.09;4487773;32;20147;-78
2022/01/08 06:46:26;;;;;;;39.35;15.25;;;;;;;1.46;43.04;98003.09;4487197;32;19959;-77
2022/01/08 06:48:53;;;;;;;;;;;;;;;0.99;43.78;98003.41;4487655;32;20476;-77
2022/01/08 06:51:20;;;;;;;22.80;9.10;;;;;;;1.64;41.75;98017.38;4487462;32;19987;-77
2022/01/08 06:53:47;;;;;;;;;;;;;;;1.05;42.51;98011.00;4487407;32;20179;-78
2022/01/08 06:56:14;;;;;;;20.92;7.75;;;;;;;0.63;43.87;98006.97;4487561;32;20615;-78
2022/01/08 06:58:43;;;;;;;;;;;;;;;0.69;43.96;98004.41;4473376;32;20109;-78
2022/01/08 07:01:10;;;;;;;19.42;7.32;;;;;;;0.73;44.13;98003.53;4487117;32;20035;-78
2022/01/08 07:03:37;;;;;;;18.95;7.53;;;;;;;0.48;44.85;97997.72;4472911;32;20390;-78
2022/01/08 07:06:04;;;;;;;23.35;8.35;;;;;;;1.54;43.08;97987.81;4487189;32;20465;-77
2022/01/08 07:08:31;;;;;;;25.05;8.48;;;;;;;0.38;45.75;97979.13;4472618;32;20168;-77
2022/01/08 07:10:58;;;;;;;31.70;12.18;;;;;;;1.16;44.27;97989.75;4487205;32;20092;-77
2022/01/08 07:13:25;;;;;;;37.17;14.13;;;;;;;1.03;43.46;97985.59;4473075;32;20147;-77
2022/01/08 07:15:52;;;;;;;;;;;;;;;0.83;44.76;97988.25;4487058;32;20092;-78
2022/01/08 07:18:19;;;;;;;35.15;12.73;;;;;;;0.78;45.37;97982.34;4487011;32;20005;-78
2022/01/08 07:20:46;;;;;;;;;;;;;;;1.11;47.55;97980.47;4473379;32;20120;-78
2022/01/08 07:23:12;;;;;;;42.80;15.07;;;;;;;2.13;46.99;97974.56;4486604;32;20031;-78
2022/01/08 07:25:39;;;;;;;;;;;;;;;2.62;43.43;97973.97;4487072;32;20151;-78
2022/01/08 07:28:06;;;;;;;40.72;17.55;;;;;;;2.76;41.96;97974.63;4486862;32;19987;-78
2022/01/08 07:30:33;;;;;;;;;;;;;;;2.67;41.58;97979.88;4487059;32;20508;-78
2022/01/08 07:33:00;;;;;;;79.07;34.75;;;;;;;2.74;41.28;97973.81;4486873;32;20360;-78
2022/01/08 07:35:27;;;;;;;184.07;66.43;;;;;;;2.68;41.65;97986.66;4486436;32;20152;-78
2022/01/08 07:37:54;;;;;;;231.15;85.68;;;;;;;3.23;41.23;97975.72;4486673;32;20159;-78
2022/01/08 07:40:22;;;;;;;317.23;117.62;;;;;;;3.34;42.62;97973.84;4486842;32;20152;-78
2022/01/08 07:42:49;;;;;;;255.45;96.70;;;;;;;4.00;43.16;97967.66;4472194;32;20096;-78
2022/01/08 07:45:17;;;;;;;153.30;59.03;;;;;;;5.17;41.99;97978.06;4486731;32;20092;-78
2022/01/08 07:47:45;;;;;;;127.53;51.58;;;;;;;6.44;37.63;97969.81;4487493;32;20159;-78
2022/01/08 07:50:13;;;;;;;89.13;37.63;;;;;;;7.48;35.79;97977.03;4488449;32;20081;-78
2022/01/08 07:52:40;;;;;;;84.37;32.42;;;;;;;7.65;34.52;97967.03;4474426;32;20089;-78
2022/01/08 07:55:07;;;;;;;58.70;24.98;;;;;;;8.33;33.10;97966.47;4474522;32;20144;-78
2022/01/08 07:57:34;;;;;;;44.55;18.87;;;;;;;8.10;32.81;97962.12;4488259;32;20100;-78
2022/01/08 08:00:02;;;;;;;;;;;;;;;8.64;32.52;97960.28;4488915;32;20110;-78
2022/01/08 08:02:29;;;;;;;46.83;23.10;;;;;;;9.39;31.98;97966.00;4488658;32;19972;-78
2022/01/08 08:04:56;;;;;;;58.67;29.40;;;;;;;10.40;30.84;97961.84;4488215;32;20441;-78
2022/01/08 08:07:31;;;;;;;54.97;26.70;;;;;;;11.49;29.48;97965.50;4488396;32;20089;-78
2022/01/08 08:09:58;;;;;;;34.83;17.80;;;;;;;12.39;28.88;97958.47;4488499;32;20490;-78
2022/01/08 08:12:25;;;;;;;48.92;22.92;;;;;;;13.18;27.85;97964.59;4488199;32;20163;-78
2022/01/08 08:14:52;;;;;;;51.42;25.37;;;;;;;13.19;27.43;97962.88;4488514;32;20161;-78
2022/01/08 08:17:19;;;;;;;41.97;22.95;;;;;;;12.53;28.26;97958.56;4488331;32;20088;-78
2022/01/08 08:19:45;;;;;;;38.38;18.33;;;;;;;12.96;27.97;97946.78;4488138;32;20145;-78
2022/01/08 08:22:12;;;;;;;39.22;19.10;;;;;;;12.90;27.51;97947.12;4488495;32;20182;-78
2022/01/08 08:24:39;;;;;;;38.17;17.75;;;;;;;11.20;29.68;97941.88;4487989;32;20471;-78
2022/01/08 08:27:07;;;;;;;36.22;18.50;;;;;;;11.74;29.29;97947.88;4488333;32;20089;-78
2022/01/08 08:29:34;;;;;;;45.12;21.77;;;;;;;11.53;29.98;97943.75;4474210;32;20100;-79
2022/01/08 08:32:01;;;;;;;41.80;23.05;;;;;;;12.14;29.57;97943.37;4474233;32;20102;-78
2022/01/08 08:34:28;;;;;;;41.67;22.13;;;;;;;12.52;29.53;97943.13;4488485;32;20148;-78
2022/01/08 08:36:55;;;;;;;40.80;22.42;;;;;;;12.28;28.99;97937.47;4474345;32;20097;-79
2022/01/08 08:39:22;;;;;;;42.80;21.12;;;;;;;12.32;29.30;97936.37;4474134;32;20096;-78
2022/01/08 08:41:49;;;;;;;36.50;18.83;;;;;;;11.65;30.37;97932.81;4491526;32;20083;-78
2022/01/08 08:44:16;;;;;;;29.08;14.13;;;;;;;11.47;31.35;97934.53;4492306;32;20140;-78
2022/01/08 08:46:43;;;;;;;24.35;11.52;;;;;;;9.30;34.02;97939.78;4488672;32;20085;-78
2022/01/08 08:49:10;;;;;;;28.10;12.63;;;;;;;8.12;37.31;97934.66;4488655;32;20144;-78
2022/01/08 08:51:37;;;;;;;24.75;11.93;;;;;;;8.86;35.69;97937.16;4488362;32;20080;-78
2022/01/08 08:54:04;;;;;;;29.02;12.52;;;;;;;9.77;34.62;97938.69;4487668;32;20152;-78
2022/01/08 08:56:31;;;;;;;26.15;12.45;;;;;;;8.72;35.97;97937.69;4488101;32;20084;-78
2022/01/08 08:58:58;;;;;;;25.30;11.55;;;;;;;6.71;40.62;97939.19;4487429;32;20115;-78
2022/01/08 09:01:28;;;;;;;28.30;12.35;;;;;;;6.53;40.69;97931.12;4473802;32;20105;-78
2022/01/08 09:03:55;;;;;;;26.17;11.70;;;;;;;7.20;39.86;97929.09;4474284;32;20120;-78
2022/01/08 09:06:26;;;;;;;25.15;12.13;;;;;;;8.12;38.25;97931.25;4487963;32;20431;-78
2022/01/08 09:08:54;;;;;;;24.15;10.38;;;;;;;7.36;39.44;97929.47;4488132;32;20184;-78
2022/01/08 09:11:20;;;;;;;26.95;12.52;;;;;;;5.88;41.31;97928.59;4474076;32;20087;-78
2022/01/08 09:13:47;;;;;;;;;;;;;;;5.20;44.71;97928.56;4488110;32;20140;-78
2022/01/08 09:16:15;;;;;;;25.45;11.95;;;;;;;5.43;43.56;97936.56;4488207;32;20031;-78
2022/01/08 09:18:43;;;;;;;25.10;12.37;;;;;;;6.41;41.90;97933.19;4488018;32;20156;-78
2022/01/08 09:21:10;;;;;;;23.02;11.48;;;;;;;6.46;41.37;97929.59;4487871;32;20158;-78
2022/01/08 09:23:38;;;;;;;27.87;12.32;;;;;;;7.03;40.50;97927.97;4487670;32;20144;-78
2022/01/08 09:26:05;;;;;;;25.00;12.70;;;;;;;6.71;40.37;97929.78;4474021;32;20491;-78
2022/01/08 09:28:32;;;;;;;31.42;13.13;;;;;;;6.23;42.50;97925.12;4487759;32;20115;-78
2022/01/08 09:31:01;;;;;;;26.27;12.32;;;;;;;6.71;40.49;97931.50;4488260;32;20103;-78
2022/01/08 09:33:29;;;;;;;30.85;12.75;;;;;;;7.11;39.97;97936.25;4488115;32;20087;-78
2022/01/08 09:35:55;;;;;;;29.23;9.90;;;;;;;5.90;43.14;97931.12;4487884;32;20140;-78
2022/01/08 09:38:22;;;;;;;26.02;11.75;;;;;;;4.53;45.46;97932.59;4488143;32;20092;-78
2022/01/08 09:40:50;;;;;;;32.22;13.13;;;;;;;6.24;43.26;97924.25;4488105;32;20494;-78
2022/01/08 09:43:18;;;;;;;26.37;11.65;;;;;;;5.02;45.36;97911.94;4487476;32;20507;-78
2022/01/08 09:45:45;;;;;;;26.15;11.43;;;;;;;4.48;46.12;97907.13;4488050;32;20111;-78
2022/01/08 09:48:12;;;;;;;23.92;10.95;;;;;;;5.40;44.84;97905.91;4473636;32;20108;-78
2022/01/08 09:50:41;;;;;;;28.25;11.23;;;;;;;4.80;45.47;97900.50;4473641;32;20097;-78
2022/01/08 09:53:08;;;;;;;27.30;11.02;;;;;;;4.59;46.76;97892.44;4473769;32;20143;-78
2022/01/08 09:55:35;;;;;;;23.90;10.35;;;;;;;5.60;44.21;97895.16;4487596;32;20579;-78
2022/01/08 09:58:02;;;;;;;27.67;10.80;;;;;;;7.29;40.34;97904.06;4473761;32;20409;-78
2022/01/08 10:00:32;;;;;;;26.00;11.05;;;;;;;7.59;39.80;97895.38;4487857;32;20091;-78
2022/01/08 10:03:13;;;;;;;24.37;10.80;;;;;;;6.83;41.07;97906.31;4487675;32;20088;-78
2022/01/08 10:05:51;;;;;;;25.27;10.93;;;;;;;6.54;41.07;97906.34;4487839;32;20105;-78
2022/01/08 10:08:41;;;;;;;24.52;10.90;;;;;;;6.15;42.56;97901.44;4487521;32;20100;-78
2022/01/08 10:11:08;;;;;;;22.30;9.50;;;;;;;7.80;38.89;97896.38;4487265;32;20167;-78
2022/01/08 10:13:40;;;;;;;21.45;9.77;;;;;;;6.01;42.71;97894.12;4487615;32;20119;-78
2022/01/08 10:19:01;;;;;;;28.08;11.55;;;;;;;7.95;38.48;97897.56;4487253;32;20136;-78
2022/01/08 10:21:32;;;;;;;23.30;10.57;;;;;;;9.15;36.90;97902.59;4473599;32;20104;-78
2022/01/08 10:24:05;;;;;;;22.83;10.38;;;;;;;9.40;35.71;97898.16;4487155;32;20111;-78
2022/01/08 10:26:35;;;;;;;27.17;11.10;;;;;;;5.50;44.07;97901.41;4487517;32;20388;-78
2022/01/08 10:29:10;;;;;;;25.80;10.95;;;;;;;6.09;42.97;97897.31;4460469;32;20104;-78
2022/01/08 10:31:40;;;;;;;25.27;10.68;;;;;;;6.20;42.36;97907.28;4487127;32;20152;-78
2022/01/08 10:34:08;;;;;;;23.95;10.20;;;;;;;5.49;44.65;97913.34;4487507;32;20151;-78
2022/01/08 10:36:38;;;;;;;23.27;9.82;;;;;;;3.42;49.70;97912.53;4487597;32;20160;-78
2022/01/08 10:39:09;;;;;;;22.42;9.95;;;;;;;5.82;44.32;97915.94;4487128;32;20458;-78
2022/01/08 10:41:43;;;;;;;22.67;8.98;;;;;;;6.19;42.56;97910.72;4487670;32;20103;-78
2022/01/08 10:44:17;;;;;;;21.95;8.73;;;;;;;7.45;39.97;97903.53;4487524;32;20076;-78
2022/01/08 10:47:02;;;;;;;21.40;9.05;;;;;;;7.01;39.93;97901.50;4487033;32;20148;-78
2022/01/08 10:49:29;;;;;;;20.05;9.48;;;;;;;7.09;39.60;97904.69;4487391;32;20482;-78
2022/01/08 10:51:57;;;;;;;20.25;9.55;;;;;;;8.18;37.61;97907.03;4487227;32;20100;-78
2022/01/08 10:54:27;;;;;;;20.90;7.87;;;;;;;7.84;37.89;97898.78;4487340;32;20079;-78
2022/01/08 10:56:56;;;;;;;19.60;8.75;;;;;;;6.61;40.51;97902.72;4487379;32;20134;-78
2022/01/08 10:59:24;;;;;;;21.55;7.97;;;;;;;6.79;40.74;97907.28;4472980;32;20136;-79
2022/01/08 11:01:56;;;;;;;19.45;8.68;;;;;;;6.12;41.86;97906.66;4487483;32;20159;-78
2022/01/08 11:04:36;;;;;;;26.27;9.07;;;;;;;7.37;39.28;97905.50;4487366;32;20175;-78
2022/01/08 11:07:15;;;;;;;19.20;7.32;;;;;;;6.82;40.78;97906.38;4487095;32;20112;-78
2022/01/08 11:09:47;;;;;;;15.63;6.93;;;;;;;7.22;39.67;97901.66;4473178;32;20151;-78
2022/01/08 11:12:19;;;;;;;19.40;8.80;;;;;;;8.92;35.07;97893.19;4472977;32;20455;-78
2022/01/08 11:17:28;;;;;;;;;;;;;;;7.68;37.96;97900.19;4474463;32;20511;-78
2022/01/08 11:19:57;;;;;;;22.37;8.40;;;;;;;8.07;36.74;97895.41;4486718;32;19995;-78
2022/01/08 11:22:27;;;;;;;17.50;8.48;;;;;;;9.26;34.80;97897.87;4486469;32;20179;-78
2022/01/08 11:25:01;;;;;;;18.67;8.30;;;;;;;10.19;33.45;97891.38;4486643;31;20127;-79
2022/01/08 11:27:37;;;;;;;19.02;8.27;;;;;;;11.40;30.04;97886.69;4486718;32;20687;-79
2022/01/08 11:30:08;;;;;;;19.02;8.23;;;;;;;11.11;31.10;97889.81;4487030;32;20112;-79
2022/01/08 11:32:37;;;;;;;17.37;8.40;;;;;;;11.21;30.76;97883.31;4487114;32;20088;-79
2022/01/08 11:35:25;;;;;;;18.40;8.60;;;;;;;11.14;31.23;97876.75;4486506;32;20084;-79
2022/01/08 11:37:55;;;;;;;19.33;8.02;;;;;;;10.50;31.38;97880.56;4486802;32;20160;-78
2022/01/08 11:40:25;;;;;;;16.80;8.20;;;;;;;10.67;31.43;97872.91;4486868;32;20159;-78
2022/01/08 11:42:52;;;;;;;24.40;9.70;;;;;;;10.72;32.19;97864.94;4486488;32;20089;-78
2022/01/08 11:45:28;;;;;;;18.45;8.35;;;;;;;8.83;33.85;97870.41;4486718;32;20102;-78
2022/01/08 11:47:57;;;;;;;19.08;8.20;;;;;;;11.36;30.20;97866.22;4472382;32;20136;-78
2022/01/08 11:50:29;;;;;;;17.77;8.60;;;;;;;10.07;31.52;97860.97;4486631;32;20405;-78
2022/01/08 11:53:16;;;;;;;18.40;8.55;;;;;;;10.09;32.74;97854.84;4472594;32;20148;-79
2022/01/08 11:55:48;;;;;;;18.95;8.88;;;;;;;10.48;31.52;97860.91;4486515;32;20475;-78
2022/01/08 11:58:27;;;;;;;18.75;8.80;;;;;;;11.62;29.89;97850.28;4472369;32;20168;-79
2022/01/08 12:01:14;;;;;;;17.48;8.40;;;;;;;12.38;29.15;97854.13;4486662;32;20140;-79
2022/01/08 12:03:49;;;;;;;20.98;8.88;;;;;;;13.07;27.90;97850.38;4471896;32;20134;-78